sensor_id;sensor_type;location;lat;lon;timestamp;P1;durP1;ratioP1;P2;durP2;ratioP2
12482;SDS011;6306;47.134;15.344;2022-09-12T00:00:28;0.80;;;0.60;;
12482;SDS011;6306;47.134;15.344;2022-09-12T00:02:56;3.70;;;0.90;;
12482;SDS011;6306;47.134;15.344;2022-09-12T00:05:23;1.80;;;0.70;;
12482;SDS011;6306;47.134;15.344;2022-09-12T00:07:49;1.93;;;0.70;;
12482;SDS011;6306;47.134;15.344;2022-09-12T00:10:15;4.13;;;1.00;;
12482;SDS011;6306;47.134;15.344;2022-09-12T00:12:42;1.40;;;1.07;;
12482;SDS011;6306;47.134;15.344;2022-09-12T00:15:08;0.80;;;0.80;;
12482;SDS011;6306;47.134;15.344;2022-09-12T00:17:35;0.80;;;0.80;;
12482;SDS011;6306;47.134;15.344;2022-09-12T00:20:01;0.70;;;0.60;;
12482;SDS011;6306;47.134;15.344;2022-09-12T00:22:28;1.17;;;0.60;;
12482;SDS011;6306;47.134;15.344;2022-09-12T00:24:54;0.87;;;0.67;;
12482;SDS011;6306;47.134;15.344;2022-09-12T00:27:20;1.43;;;0.77;;
12482;SDS011;6306;47.134;15.344;2022-09-12T00:29:46;2.27;;;1.10;;
12482;SDS011;6306;47.134;15.344;2022-09-12T00:32:12;1.23;;;1.10;;
12482;SDS011;6306;47.134;15.344;2022-09-12T00:34:38;1.00;;;0.90;;
12482;SDS011;6306;47.134;15.344;2022-09-12T00:37:04;0.87;;;0.67;;
12482;SDS011;6306;47.134;15.344;2022-09-12T00:39:30;0.63;;;0.60;;
12482;SDS011;6306;47.134;15.344;2022-09-12T00:41:56;2.70;;;1.07;;
12482;SDS011;6306;47.134;15.344;2022-09-12T00:47:03;0.70;;;0.70;;
12482;SDS011;6306;47.134;15.344;2022-09-12T00:49:44;1.50;;;0.80;;
12482;SDS011;6306;47.134;15.344;2022-09-12T00:52:16;0.97;;;0.87;;
12482;SDS011;6306;47.134;15.344;2022-09-12T00:57:13;0.57;;;0.53;;
12482;SDS011;6306;47.134;15.344;2022-09-12T00:59:43;1.43;;;1.13;;
12482;SDS011;6306;47.134;15.344;2022-09-12T01:02:10;1.07;;;0.80;;
12482;SDS011;6306;47.134;15.344;2022-09-12T01:04:37;1.00;;;0.90;;
12482;SDS011;6306;47.134;15.344;2022-09-12T01:07:03;0.80;;;0.80;;
12482;SDS011;6306;47.134;15.344;2022-09-12T01:09:30;0.80;;;0.80;;
12482;SDS011;6306;47.134;15.344;2022-09-12T01:11:56;2.53;;;0.90;;
12482;SDS011;6306;47.134;15.344;2022-09-12T01:14:23;0.77;;;0.77;;
12482;SDS011;6306;47.134;15.344;2022-09-12T01:16:49;2.40;;;1.13;;
12482;SDS011;6306;47.134;15.344;2022-09-12T01:27:15;1.73;;;0.80;;
12482;SDS011;6306;47.134;15.344;2022-09-12T01:29:55;1.23;;;1.03;;
12482;SDS011;6306;47.134;15.344;2022-09-12T01:35:03;0.93;;;0.93;;
12482;SDS011;6306;47.134;15.344;2022-09-12T01:37:40;3.70;;;0.90;;
12482;SDS011;6306;47.134;15.344;2022-09-12T01:40:09;1.13;;;1.03;;
12482;SDS011;6306;47.134;15.344;2022-09-12T01:45:08;0.70;;;0.63;;
12482;SDS011;6306;47.134;15.344;2022-09-12T01:47:42;5.27;;;0.90;;
12482;SDS011;6306;47.134;15.344;2022-09-12T01:50:18;4.00;;;1.07;;
12482;SDS011;6306;47.134;15.344;2022-09-12T01:52:49;2.37;;;0.63;;
12482;SDS011;6306;47.134;15.344;2022-09-12T01:57:55;0.60;;;0.60;;
12482;SDS011;6306;47.134;15.344;2022-09-12T02:00:23;2.40;;;0.77;;
12482;SDS011;6306;47.134;15.344;2022-09-12T02:02:59;2.00;;;0.77;;
12482;SDS011;6306;47.134;15.344;2022-09-12T02:05:36;1.00;;;0.97;;
12482;SDS011;6306;47.134;15.344;2022-09-12T02:08:07;3.10;;;1.50;;
12482;SDS011;6306;47.134;15.344;2022-09-12T02:10:45;3.10;;;0.90;;
12482;SDS011;6306;47.134;15.344;2022-09-12T02:13:14;1.03;;;0.93;;
12482;SDS011;6306;47.134;15.344;2022-09-12T02:15:46;1.13;;;0.83;;
12482;SDS011;6306;47.134;15.344;2022-09-12T02:18:15;1.20;;;0.90;;
12482;SDS011;6306;47.134;15.344;2022-09-12T02:20:42;1.00;;;0.90;;
12482;SDS011;6306;47.134;15.344;2022-09-12T02:23:11;4.70;;;1.10;;
12482;SDS011;6306;47.134;15.344;2022-09-12T02:25:39;2.50;;;1.30;;
12482;SDS011;6306;47.134;15.344;2022-09-12T02:28:14;1.10;;;1.00;;
12482;SDS011;6306;47.134;15.344;2022-09-12T02:30:43;1.57;;;1.43;;
12482;SDS011;6306;47.134;15.344;2022-09-12T02:33:14;1.43;;;1.10;;
12482;SDS011;6306;47.134;15.344;2022-09-12T02:35:48;1.00;;;0.70;;
12482;SDS011;6306;47.134;15.344;2022-09-12T02:38:25;1.43;;;1.33;;
12482;SDS011;6306;47.134;15.344;2022-09-12T02:40:54;0.70;;;0.70;;
12482;SDS011;6306;47.134;15.344;2022-09-12T02:43:20;1.20;;;1.00;;
12482;SDS011;6306;47.134;15.344;2022-09-12T02:45:46;2.30;;;2.20;;
12482;SDS011;6306;47.134;15.344;2022-09-12T02:48:19;1.40;;;1.30;;
12482;SDS011;6306;47.134;15.344;2022-09-12T02:50:46;0.80;;;0.80;;
12482;SDS011;6306;47.134;15.344;2022-09-12T02:53:12;5.97;;;1.00;;
12482;SDS011;6306;47.134;15.344;2022-09-12T02:55:39;1.47;;;1.37;;
12482;SDS011;6306;47.134;15.344;2022-09-12T02:58:07;0.80;;;0.63;;
12482;SDS011;6306;47.134;15.344;2022-09-12T03:00:36;2.93;;;0.93;;
12482;SDS011;6306;47.134;15.344;2022-09-12T03:05:59;2.03;;;1.10;;
12482;SDS011;6306;47.134;15.344;2022-09-12T03:13:44;0.90;;;0.90;;
12482;SDS011;6306;47.134;15.344;2022-09-12T03:21:20;2.50;;;1.20;;
12482;SDS011;6306;47.134;15.344;2022-09-12T03:24:08;7.00;;;0.93;;
12482;SDS011;6306;47.134;15.344;2022-09-12T03:29:08;1.43;;;0.80;;
12482;SDS011;6306;47.134;15.344;2022-09-12T03:31:35;1.40;;;0.90;;
12482;SDS011;6306;47.134;15.344;2022-09-12T03:34:03;1.90;;;1.20;;
12482;SDS011;6306;47.134;15.344;2022-09-12T03:36:31;0.97;;;0.80;;
12482;SDS011;6306;47.134;15.344;2022-09-12T03:38:57;2.00;;;1.27;;
12482;SDS011;6306;47.134;15.344;2022-09-12T03:41:23;1.20;;;0.97;;
12482;SDS011;6306;47.134;15.344;2022-09-12T03:43:49;6.60;;;1.50;;
12482;SDS011;6306;47.134;15.344;2022-09-12T03:46:15;3.60;;;1.17;;
12482;SDS011;6306;47.134;15.344;2022-09-12T03:48:41;1.23;;;0.87;;
12482;SDS011;6306;47.134;15.344;2022-09-12T03:51:08;2.53;;;1.17;;
12482;SDS011;6306;47.134;15.344;2022-09-12T03:53:35;1.00;;;0.90;;
12482;SDS011;6306;47.134;15.344;2022-09-12T03:56:05;1.20;;;1.10;;
12482;SDS011;6306;47.134;15.344;2022-09-12T03:58:31;1.53;;;0.90;;
12482;SDS011;6306;47.134;15.344;2022-09-12T04:00:59;2.30;;;1.10;;
12482;SDS011;6306;47.134;15.344;2022-09-12T04:03:25;1.13;;;1.00;;
12482;SDS011;6306;47.134;15.344;2022-09-12T04:05:51;1.50;;;1.00;;
12482;SDS011;6306;47.134;15.344;2022-09-12T04:08:17;8.23;;;1.47;;
12482;SDS011;6306;47.134;15.344;2022-09-12T04:10:43;1.30;;;1.20;;
12482;SDS011;6306;47.134;15.344;2022-09-12T04:13:09;1.17;;;1.07;;
12482;SDS011;6306;47.134;15.344;2022-09-12T04:15:35;1.93;;;1.60;;
12482;SDS011;6306;47.134;15.344;2022-09-12T04:18:01;1.33;;;1.23;;
12482;SDS011;6306;47.134;15.344;2022-09-12T04:20:28;1.50;;;0.93;;
12482;SDS011;6306;47.134;15.344;2022-09-12T04:22:54;1.30;;;1.07;;
12482;SDS011;6306;47.134;15.344;2022-09-12T04:25:20;4.50;;;1.90;;
12482;SDS011;6306;47.134;15.344;2022-09-12T04:27:46;1.87;;;1.00;;
12482;SDS011;6306;47.134;15.344;2022-09-12T04:30:12;1.63;;;1.53;;
12482;SDS011;6306;47.134;15.344;2022-09-12T04:32:38;1.40;;;0.90;;
12482;SDS011;6306;47.134;15.344;2022-09-12T04:35:05;2.20;;;1.30;;
12482;SDS011;6306;47.134;15.344;2022-09-12T04:37:31;2.30;;;1.20;;
12482;SDS011;6306;47.134;15.344;2022-09-12T04:39:57;1.30;;;1.20;;
12482;SDS011;6306;47.134;15.344;2022-09-12T04:42:23;1.37;;;1.00;;
12482;SDS011;6306;47.134;15.344;2022-09-12T04:44:49;2.30;;;1.20;;
12482;SDS011;6306;47.134;15.344;2022-09-12T04:47:16;2.03;;;1.47;;
12482;SDS011;6306;47.134;15.344;2022-09-12T04:49:42;1.27;;;1.17;;
12482;SDS011;6306;47.134;15.344;2022-09-12T04:52:08;1.60;;;1.43;;
12482;SDS011;6306;47.134;15.344;2022-09-12T04:54:34;2.30;;;1.57;;
12482;SDS011;6306;47.134;15.344;2022-09-12T04:57:00;2.80;;;1.33;;
12482;SDS011;6306;47.134;15.344;2022-09-12T04:59:26;1.30;;;0.93;;
12482;SDS011;6306;47.134;15.344;2022-09-12T05:01:52;4.47;;;1.53;;
12482;SDS011;6306;47.134;15.344;2022-09-12T05:04:18;2.40;;;1.17;;
12482;SDS011;6306;47.134;15.344;2022-09-12T05:06:45;2.53;;;1.40;;
12482;SDS011;6306;47.134;15.344;2022-09-12T05:09:12;1.83;;;1.53;;
12482;SDS011;6306;47.134;15.344;2022-09-12T05:11:39;1.37;;;1.27;;
12482;SDS011;6306;47.134;15.344;2022-09-12T05:14:07;2.60;;;1.63;;
12482;SDS011;6306;47.134;15.344;2022-09-12T05:16:33;1.20;;;1.00;;
12482;SDS011;6306;47.134;15.344;2022-09-12T05:18:59;2.03;;;1.20;;
12482;SDS011;6306;47.134;15.344;2022-09-12T05:21:25;2.07;;;1.30;;
12482;SDS011;6306;47.134;15.344;2022-09-12T05:23:55;1.17;;;1.07;;
12482;SDS011;6306;47.134;15.344;2022-09-12T05:26:21;1.60;;;1.50;;
12482;SDS011;6306;47.134;15.344;2022-09-12T05:28:48;1.40;;;1.30;;
12482;SDS011;6306;47.134;15.344;2022-09-12T05:33:41;3.70;;;1.00;;
12482;SDS011;6306;47.134;15.344;2022-09-12T05:36:09;1.20;;;1.10;;
12482;SDS011;6306;47.134;15.344;2022-09-12T05:38:36;1.90;;;1.53;;
12482;SDS011;6306;47.134;15.344;2022-09-12T05:41:05;2.40;;;1.13;;
12482;SDS011;6306;47.134;15.344;2022-09-12T05:43:35;2.90;;;1.07;;
12482;SDS011;6306;47.134;15.344;2022-09-12T05:46:06;1.13;;;0.90;;
12482;SDS011;6306;47.134;15.344;2022-09-12T05:48:33;2.30;;;1.03;;
12482;SDS011;6306;47.134;15.344;2022-09-12T05:51:03;5.23;;;1.30;;
12482;SDS011;6306;47.134;15.344;2022-09-12T05:53:30;6.03;;;1.50;;
12482;SDS011;6306;47.134;15.344;2022-09-12T05:58:59;3.03;;;1.40;;
12482;SDS011;6306;47.134;15.344;2022-09-12T06:01:26;2.37;;;1.20;;
12482;SDS011;6306;47.134;15.344;2022-09-12T06:03:53;2.30;;;1.17;;
12482;SDS011;6306;47.134;15.344;2022-09-12T06:06:20;1.57;;;1.47;;
12482;SDS011;6306;47.134;15.344;2022-09-12T06:08:47;1.67;;;1.27;;
12482;SDS011;6306;47.134;15.344;2022-09-12T06:11:14;5.77;;;1.20;;
12482;SDS011;6306;47.134;15.344;2022-09-12T06:13:41;1.00;;;1.00;;
12482;SDS011;6306;47.134;15.344;2022-09-12T06:16:14;1.50;;;1.40;;
12482;SDS011;6306;47.134;15.344;2022-09-12T06:18:45;1.03;;;0.90;;
12482;SDS011;6306;47.134;15.344;2022-09-12T06:21:11;3.80;;;1.50;;
12482;SDS011;6306;47.134;15.344;2022-09-12T06:23:38;2.80;;;1.80;;
12482;SDS011;6306;47.134;15.344;2022-09-12T06:26:05;1.50;;;1.40;;
12482;SDS011;6306;47.134;15.344;2022-09-12T06:28:33;1.97;;;1.80;;
12482;SDS011;6306;47.134;15.344;2022-09-12T06:31:03;2.63;;;1.53;;
12482;SDS011;6306;47.134;15.344;2022-09-12T06:33:30;3.43;;;2.63;;
12482;SDS011;6306;47.134;15.344;2022-09-12T06:36:01;3.43;;;1.93;;
12482;SDS011;6306;47.134;15.344;2022-09-12T06:38:28;3.90;;;2.53;;
12482;SDS011;6306;47.134;15.344;2022-09-12T06:40:54;2.50;;;2.30;;
12482;SDS011;6306;47.134;15.344;2022-09-12T06:43:21;5.07;;;2.10;;
12482;SDS011;6306;47.134;15.344;2022-09-12T06:45:47;2.07;;;1.87;;
12482;SDS011;6306;47.134;15.344;2022-09-12T06:48:14;2.33;;;1.87;;
12482;SDS011;6306;47.134;15.344;2022-09-12T06:50:40;4.47;;;2.10;;
12482;SDS011;6306;47.134;15.344;2022-09-12T06:53:06;2.93;;;2.20;;
12482;SDS011;6306;47.134;15.344;2022-09-12T06:55:32;2.83;;;2.07;;
12482;SDS011;6306;47.134;15.344;2022-09-12T06:57:58;3.27;;;2.67;;
12482;SDS011;6306;47.134;15.344;2022-09-12T07:00:24;1.90;;;1.70;;
12482;SDS011;6306;47.134;15.344;2022-09-12T07:02:54;6.20;;;1.97;;
12482;SDS011;6306;47.134;15.344;2022-09-12T07:05:23;2.37;;;1.80;;
12482;SDS011;6306;47.134;15.344;2022-09-12T07:07:49;3.10;;;2.80;;
12482;SDS011;6306;47.134;15.344;2022-09-12T07:10:15;3.40;;;1.93;;
12482;SDS011;6306;47.134;15.344;2022-09-12T07:12:41;4.30;;;2.07;;
12482;SDS011;6306;47.134;15.344;2022-09-12T07:15:07;5.43;;;1.90;;
12482;SDS011;6306;47.134;15.344;2022-09-12T07:17:34;7.87;;;2.80;;
12482;SDS011;6306;47.134;15.344;2022-09-12T07:20:00;4.47;;;2.47;;
12482;SDS011;6306;47.134;15.344;2022-09-12T07:22:26;5.57;;;2.50;;
12482;SDS011;6306;47.134;15.344;2022-09-12T07:24:52;7.23;;;2.10;;
12482;SDS011;6306;47.134;15.344;2022-09-12T07:27:19;5.53;;;2.50;;
12482;SDS011;6306;47.134;15.344;2022-09-12T07:29:46;2.50;;;2.30;;
12482;SDS011;6306;47.134;15.344;2022-09-12T07:32:13;4.70;;;2.10;;
12482;SDS011;6306;47.134;15.344;2022-09-12T07:34:39;4.23;;;2.27;;
12482;SDS011;6306;47.134;15.344;2022-09-12T07:37:05;5.80;;;2.50;;
12482;SDS011;6306;47.134;15.344;2022-09-12T07:39:31;2.20;;;2.00;;
12482;SDS011;6306;47.134;15.344;2022-09-12T07:41:57;3.07;;;2.10;;
12482;SDS011;6306;47.134;15.344;2022-09-12T07:44:24;2.37;;;2.17;;
12482;SDS011;6306;47.134;15.344;2022-09-12T07:46:50;2.63;;;2.03;;
12482;SDS011;6306;47.134;15.344;2022-09-12T07:49:16;8.40;;;2.27;;
12482;SDS011;6306;47.134;15.344;2022-09-12T07:51:42;3.93;;;2.03;;
12482;SDS011;6306;47.134;15.344;2022-09-12T07:54:09;3.27;;;2.70;;
12482;SDS011;6306;47.134;15.344;2022-09-12T07:56:35;2.13;;;1.93;;
12482;SDS011;6306;47.134;15.344;2022-09-12T07:59:01;2.60;;;1.97;;
12482;SDS011;6306;47.134;15.344;2022-09-12T08:01:27;4.10;;;2.93;;
12482;SDS011;6306;47.134;15.344;2022-09-12T08:03:57;3.83;;;2.60;;
12482;SDS011;6306;47.134;15.344;2022-09-12T08:06:24;2.80;;;2.10;;
12482;SDS011;6306;47.134;15.344;2022-09-12T08:08:51;2.60;;;2.20;;
12482;SDS011;6306;47.134;15.344;2022-09-12T08:11:18;2.30;;;1.83;;
12482;SDS011;6306;47.134;15.344;2022-09-12T08:13:45;2.00;;;1.80;;
12482;SDS011;6306;47.134;15.344;2022-09-12T08:16:15;7.80;;;2.30;;
12482;SDS011;6306;47.134;15.344;2022-09-12T08:18:41;2.40;;;1.70;;
12482;SDS011;6306;47.134;15.344;2022-09-12T08:21:15;2.23;;;2.10;;
12482;SDS011;6306;47.134;15.344;2022-09-12T08:23:41;4.70;;;2.30;;
12482;SDS011;6306;47.134;15.344;2022-09-12T08:26:08;18.23;;;3.00;;
12482;SDS011;6306;47.134;15.344;2022-09-12T08:28:35;3.33;;;2.20;;
12482;SDS011;6306;47.134;15.344;2022-09-12T08:33:27;2.00;;;1.63;;
12482;SDS011;6306;47.134;15.344;2022-09-12T08:38:33;4.07;;;2.03;;
12482;SDS011;6306;47.134;15.344;2022-09-12T08:41:05;3.70;;;1.63;;
12482;SDS011;6306;47.134;15.344;2022-09-12T08:43:38;2.80;;;1.70;;
12482;SDS011;6306;47.134;15.344;2022-09-12T08:46:10;1.90;;;1.60;;
12482;SDS011;6306;47.134;15.344;2022-09-12T08:48:38;1.27;;;1.07;;
12482;SDS011;6306;47.134;15.344;2022-09-12T08:51:07;0.83;;;0.83;;
12482;SDS011;6306;47.134;15.344;2022-09-12T08:53:35;1.83;;;1.40;;
12482;SDS011;6306;47.134;15.344;2022-09-12T08:56:02;1.00;;;0.90;;
12482;SDS011;6306;47.134;15.344;2022-09-12T08:58:33;1.63;;;1.10;;
12482;SDS011;6306;47.134;15.344;2022-09-12T09:08:38;1.93;;;1.60;;
12482;SDS011;6306;47.134;15.344;2022-09-12T09:16:47;1.20;;;1.10;;
12482;SDS011;6306;47.134;15.344;2022-09-12T09:19:15;1.23;;;1.10;;
12482;SDS011;6306;47.134;15.344;2022-09-12T09:21:44;0.93;;;0.87;;
12482;SDS011;6306;47.134;15.344;2022-09-12T09:24:15;1.07;;;1.07;;
12482;SDS011;6306;47.134;15.344;2022-09-12T09:26:44;1.17;;;1.10;;
12482;SDS011;6306;47.134;15.344;2022-09-12T09:29:16;2.93;;;1.03;;
12482;SDS011;6306;47.134;15.344;2022-09-12T09:31:43;2.40;;;1.17;;
12482;SDS011;6306;47.134;15.344;2022-09-12T09:34:14;3.77;;;1.70;;
12482;SDS011;6306;47.134;15.344;2022-09-12T09:36:50;1.03;;;0.93;;
12482;SDS011;6306;47.134;15.344;2022-09-12T09:42:00;1.40;;;1.20;;
12482;SDS011;6306;47.134;15.344;2022-09-12T09:44:29;1.30;;;0.87;;
12482;SDS011;6306;47.134;15.344;2022-09-12T09:46:56;1.40;;;1.30;;
12482;SDS011;6306;47.134;15.344;2022-09-12T09:49:24;1.70;;;1.60;;
12482;SDS011;6306;47.134;15.344;2022-09-12T09:51:51;3.50;;;1.47;;
12482;SDS011;6306;47.134;15.344;2022-09-12T09:54:19;1.10;;;1.00;;
12482;SDS011;6306;47.134;15.344;2022-09-12T09:56:46;0.97;;;0.97;;
12482;SDS011;6306;47.134;15.344;2022-09-12T10:01:45;0.77;;;0.77;;
12482;SDS011;6306;47.134;15.344;2022-09-12T10:04:22;1.33;;;1.23;;
12482;SDS011;6306;47.134;15.344;2022-09-12T10:06:52;1.70;;;1.20;;
12482;SDS011;6306;47.134;15.344;2022-09-12T10:09:22;6.27;;;1.90;;
12482;SDS011;6306;47.134;15.344;2022-09-12T10:11:49;1.67;;;1.57;;
12482;SDS011;6306;47.134;15.344;2022-09-12T10:16:51;1.53;;;1.43;;
12482;SDS011;6306;47.134;15.344;2022-09-12T10:19:19;2.60;;;1.80;;
12482;SDS011;6306;47.134;15.344;2022-09-12T10:21:51;1.40;;;1.30;;
12482;SDS011;6306;47.134;15.344;2022-09-12T10:29:24;1.63;;;1.30;;
12482;SDS011;6306;47.134;15.344;2022-09-12T10:31:55;3.60;;;1.50;;
12482;SDS011;6306;47.134;15.344;2022-09-12T10:34:24;1.77;;;1.67;;
12482;SDS011;6306;47.134;15.344;2022-09-12T10:36:53;1.50;;;1.30;;
12482;SDS011;6306;47.134;15.344;2022-09-12T10:39:19;1.70;;;1.60;;
12482;SDS011;6306;47.134;15.344;2022-09-12T10:41:46;1.97;;;1.17;;
12482;SDS011;6306;47.134;15.344;2022-09-12T10:44:31;1.40;;;1.23;;
12482;SDS011;6306;47.134;15.344;2022-09-12T10:46:58;1.17;;;1.07;;
12482;SDS011;6306;47.134;15.344;2022-09-12T10:51:51;1.93;;;1.40;;
12482;SDS011;6306;47.134;15.344;2022-09-12T10:54:19;1.47;;;1.37;;
12482;SDS011;6306;47.134;15.344;2022-09-12T11:02:00;1.10;;;1.10;;
12482;SDS011;6306;47.134;15.344;2022-09-12T11:09:43;1.10;;;0.83;;
12482;SDS011;6306;47.134;15.344;2022-09-12T11:17:39;1.10;;;1.00;;
12482;SDS011;6306;47.134;15.344;2022-09-12T11:20:16;1.20;;;1.10;;
12482;SDS011;6306;47.134;15.344;2022-09-12T11:25:29;1.37;;;1.27;;
12482;SDS011;6306;47.134;15.344;2022-09-12T11:31:02;1.10;;;1.00;;
12482;SDS011;6306;47.134;15.344;2022-09-12T11:33:36;2.43;;;0.67;;
12482;SDS011;6306;47.134;15.344;2022-09-12T11:36:06;1.13;;;1.00;;
12482;SDS011;6306;47.134;15.344;2022-09-12T11:38:39;2.10;;;0.93;;
12482;SDS011;6306;47.134;15.344;2022-09-12T11:41:14;1.13;;;0.97;;
12482;SDS011;6306;47.134;15.344;2022-09-12T11:46:29;1.40;;;1.30;;
12482;SDS011;6306;47.134;15.344;2022-09-12T11:54:15;1.20;;;1.10;;
12482;SDS011;6306;47.134;15.344;2022-09-12T11:56:46;1.30;;;1.20;;
12482;SDS011;6306;47.134;15.344;2022-09-12T11:59:17;1.53;;;0.90;;
12482;SDS011;6306;47.134;15.344;2022-09-12T12:01:50;1.60;;;1.50;;
12482;SDS011;6306;47.134;15.344;2022-09-12T12:04:19;7.90;;;1.70;;
12482;SDS011;6306;47.134;15.344;2022-09-12T12:06:50;2.07;;;1.20;;
12482;SDS011;6306;47.134;15.344;2022-09-12T12:09:18;1.83;;;1.47;;
12482;SDS011;6306;47.134;15.344;2022-09-12T12:11:47;1.00;;;1.00;;
12482;SDS011;6306;47.134;15.344;2022-09-12T12:14:18;1.40;;;1.23;;
12482;SDS011;6306;47.134;15.344;2022-09-12T12:16:45;1.50;;;1.40;;
12482;SDS011;6306;47.134;15.344;2022-09-12T12:21:48;1.60;;;0.90;;
12482;SDS011;6306;47.134;15.344;2022-09-12T12:24:16;0.97;;;0.90;;
12482;SDS011;6306;47.134;15.344;2022-09-12T12:26:43;1.53;;;1.43;;
12482;SDS011;6306;47.134;15.344;2022-09-12T12:29:11;1.43;;;1.33;;
12482;SDS011;6306;47.134;15.344;2022-09-12T12:34:31;1.90;;;1.23;;
12482;SDS011;6306;47.134;15.344;2022-09-12T12:36:58;1.33;;;1.20;;
12482;SDS011;6306;47.134;15.344;2022-09-12T12:47:33;0.90;;;0.90;;
12482;SDS011;6306;47.134;15.344;2022-09-12T12:55:15;0.87;;;0.87;;
12482;SDS011;6306;47.134;15.344;2022-09-12T12:57:48;1.90;;;1.10;;
12482;SDS011;6306;47.134;15.344;2022-09-12T13:05:38;1.87;;;1.10;;
12482;SDS011;6306;47.134;15.344;2022-09-12T13:08:06;1.10;;;1.10;;
12482;SDS011;6306;47.134;15.344;2022-09-12T13:10:34;1.37;;;1.27;;
12482;SDS011;6306;47.134;15.344;2022-09-12T13:13:01;1.70;;;1.60;;
12482;SDS011;6306;47.134;15.344;2022-09-12T13:18:02;1.57;;;1.47;;
12482;SDS011;6306;47.134;15.344;2022-09-12T13:20:34;1.10;;;1.00;;
12482;SDS011;6306;47.134;15.344;2022-09-12T13:23:01;1.37;;;1.27;;
12482;SDS011;6306;47.134;15.344;2022-09-12T13:25:32;1.10;;;1.10;;
12482;SDS011;6306;47.134;15.344;2022-09-12T13:31:20;1.40;;;0.90;;
12482;SDS011;6306;47.134;15.344;2022-09-12T13:33:28;0.87;;;0.87;;
12482;SDS011;6306;47.134;15.344;2022-09-12T13:38:44;2.30;;;1.10;;
12482;SDS011;6306;47.134;15.344;2022-09-12T13:43:39;1.27;;;1.17;;
12482;SDS011;6306;47.134;15.344;2022-09-12T13:46:06;1.53;;;1.20;;
12482;SDS011;6306;47.134;15.344;2022-09-12T13:48:32;2.30;;;1.50;;
12482;SDS011;6306;47.134;15.344;2022-09-12T13:50:59;1.00;;;0.83;;
12482;SDS011;6306;47.134;15.344;2022-09-12T13:53:40;1.27;;;1.17;;
12482;SDS011;6306;47.134;15.344;2022-09-12T13:56:07;0.97;;;0.97;;
12482;SDS011;6306;47.134;15.344;2022-09-12T13:58:49;1.20;;;1.03;;
12482;SDS011;6306;47.134;15.344;2022-09-12T14:01:15;1.07;;;1.03;;
12482;SDS011;6306;47.134;15.344;2022-09-12T14:06:47;1.20;;;1.10;;
12482;SDS011;6306;47.134;15.344;2022-09-12T14:09:31;2.53;;;0.93;;
12482;SDS011;6306;47.134;15.344;2022-09-12T14:11:58;1.20;;;1.07;;
12482;SDS011;6306;47.134;15.344;2022-09-12T14:16:57;1.20;;;1.10;;
12482;SDS011;6306;47.134;15.344;2022-09-12T14:19:24;1.20;;;1.10;;
12482;SDS011;6306;47.134;15.344;2022-09-12T14:21:53;1.23;;;1.13;;
12482;SDS011;6306;47.134;15.344;2022-09-12T14:24:19;1.00;;;1.00;;
12482;SDS011;6306;47.134;15.344;2022-09-12T14:26:52;2.93;;;1.00;;
12482;SDS011;6306;47.134;15.344;2022-09-12T14:29:20;3.40;;;1.10;;
12482;SDS011;6306;47.134;15.344;2022-09-12T14:31:58;1.40;;;1.13;;
12482;SDS011;6306;47.134;15.344;2022-09-12T14:34:25;1.73;;;1.07;;
12482;SDS011;6306;47.134;15.344;2022-09-12T14:36:52;1.20;;;1.10;;
12482;SDS011;6306;47.134;15.344;2022-09-12T14:41:46;1.27;;;1.17;;
12482;SDS011;6306;47.134;15.344;2022-09-12T14:44:16;1.87;;;1.37;;
12482;SDS011;6306;47.134;15.344;2022-09-12T14:46:44;3.00;;;1.63;;
12482;SDS011;6306;47.134;15.344;2022-09-12T14:51:38;2.20;;;1.20;;
12482;SDS011;6306;47.134;15.344;2022-09-12T14:54:04;0.90;;;0.90;;
12482;SDS011;6306;47.134;15.344;2022-09-12T14:56:40;3.20;;;1.37;;
12482;SDS011;6306;47.134;15.344;2022-09-12T14:59:23;1.03;;;1.03;;
12482;SDS011;6306;47.134;15.344;2022-09-12T15:02:36;1.30;;;1.20;;
12482;SDS011;6306;47.134;15.344;2022-09-12T15:04:38;1.17;;;0.80;;
12482;SDS011;6306;47.134;15.344;2022-09-12T15:09:49;1.10;;;1.00;;
12482;SDS011;6306;47.134;15.344;2022-09-12T15:12:15;2.20;;;1.43;;
12482;SDS011;6306;47.134;15.344;2022-09-12T15:14:41;1.03;;;0.93;;
12482;SDS011;6306;47.134;15.344;2022-09-12T15:17:07;2.20;;;1.10;;
12482;SDS011;6306;47.134;15.344;2022-09-12T15:19:33;1.20;;;1.10;;
12482;SDS011;6306;47.134;15.344;2022-09-12T15:21:59;1.40;;;1.30;;
12482;SDS011;6306;47.134;15.344;2022-09-12T15:24:25;2.60;;;1.40;;
12482;SDS011;6306;47.134;15.344;2022-09-12T15:26:51;0.90;;;0.87;;
12482;SDS011;6306;47.134;15.344;2022-09-12T15:29:17;2.40;;;1.00;;
12482;SDS011;6306;47.134;15.344;2022-09-12T15:31:44;1.10;;;1.00;;
12482;SDS011;6306;47.134;15.344;2022-09-12T15:34:11;2.77;;;1.10;;
12482;SDS011;6306;47.134;15.344;2022-09-12T15:36:37;1.53;;;1.43;;
12482;SDS011;6306;47.134;15.344;2022-09-12T15:39:03;2.23;;;2.10;;
12482;SDS011;6306;47.134;15.344;2022-09-12T15:41:33;1.90;;;1.80;;
12482;SDS011;6306;47.134;15.344;2022-09-12T15:44:03;1.17;;;1.10;;
12482;SDS011;6306;47.134;15.344;2022-09-12T15:46:29;2.50;;;1.30;;
12482;SDS011;6306;47.134;15.344;2022-09-12T15:48:55;1.30;;;1.00;;
12482;SDS011;6306;47.134;15.344;2022-09-12T15:51:21;0.90;;;0.90;;
12482;SDS011;6306;47.134;15.344;2022-09-12T15:53:48;1.50;;;1.40;;
12482;SDS011;6306;47.134;15.344;2022-09-12T15:56:15;2.57;;;1.03;;
12482;SDS011;6306;47.134;15.344;2022-09-12T15:58:41;1.03;;;1.03;;
12482;SDS011;6306;47.134;15.344;2022-09-12T16:01:09;1.30;;;1.20;;
12482;SDS011;6306;47.134;15.344;2022-09-12T16:03:35;1.20;;;1.10;;
12482;SDS011;6306;47.134;15.344;2022-09-12T16:06:02;3.73;;;1.27;;
12482;SDS011;6306;47.134;15.344;2022-09-12T16:08:28;1.40;;;1.30;;
12482;SDS011;6306;47.134;15.344;2022-09-12T16:10:57;2.03;;;1.40;;
12482;SDS011;6306;47.134;15.344;2022-09-12T16:13:23;8.87;;;1.80;;
12482;SDS011;6306;47.134;15.344;2022-09-12T16:15:50;2.33;;;2.13;;
12482;SDS011;6306;47.134;15.344;2022-09-12T16:18:16;4.30;;;1.87;;
12482;SDS011;6306;47.134;15.344;2022-09-12T16:20:43;1.67;;;1.33;;
12482;SDS011;6306;47.134;15.344;2022-09-12T16:23:12;1.63;;;1.47;;
12482;SDS011;6306;47.134;15.344;2022-09-12T16:25:39;1.77;;;1.57;;
12482;SDS011;6306;47.134;15.344;2022-09-12T16:28:05;1.53;;;1.17;;
12482;SDS011;6306;47.134;15.344;2022-09-12T16:30:31;1.30;;;1.20;;
12482;SDS011;6306;47.134;15.344;2022-09-12T16:32:57;1.40;;;1.30;;
12482;SDS011;6306;47.134;15.344;2022-09-12T16:35:23;2.43;;;1.80;;
12482;SDS011;6306;47.134;15.344;2022-09-12T16:37:49;1.40;;;1.30;;
12482;SDS011;6306;47.134;15.344;2022-09-12T16:40:16;1.33;;;1.33;;
12482;SDS011;6306;47.134;15.344;2022-09-12T16:42:43;1.77;;;1.30;;
12482;SDS011;6306;47.134;15.344;2022-09-12T16:45:10;1.33;;;1.17;;
12482;SDS011;6306;47.134;15.344;2022-09-12T16:47:36;2.33;;;1.50;;
12482;SDS011;6306;47.134;15.344;2022-09-12T16:50:02;3.40;;;1.20;;
12482;SDS011;6306;47.134;15.344;2022-09-12T16:52:28;1.83;;;1.63;;
12482;SDS011;6306;47.134;15.344;2022-09-12T16:54:55;2.20;;;1.93;;
12482;SDS011;6306;47.134;15.344;2022-09-12T16:57:21;2.00;;;1.40;;
12482;SDS011;6306;47.134;15.344;2022-09-12T16:59:47;3.40;;;2.10;;
12482;SDS011;6306;47.134;15.344;2022-09-12T17:02:14;1.20;;;1.10;;
12482;SDS011;6306;47.134;15.344;2022-09-12T17:04:40;1.90;;;1.73;;
12482;SDS011;6306;47.134;15.344;2022-09-12T17:07:06;1.77;;;1.67;;
12482;SDS011;6306;47.134;15.344;2022-09-12T17:09:33;1.47;;;1.30;;
12482;SDS011;6306;47.134;15.344;2022-09-12T17:11:59;1.50;;;1.40;;
12482;SDS011;6306;47.134;15.344;2022-09-12T17:14:25;1.03;;;1.03;;
12482;SDS011;6306;47.134;15.344;2022-09-12T17:16:51;1.70;;;1.60;;
12482;SDS011;6306;47.134;15.344;2022-09-12T17:19:18;6.03;;;1.60;;
12482;SDS011;6306;47.134;15.344;2022-09-12T17:21:45;1.53;;;1.43;;
12482;SDS011;6306;47.134;15.344;2022-09-12T17:24:12;1.40;;;1.30;;
12482;SDS011;6306;47.134;15.344;2022-09-12T17:26:38;2.13;;;1.93;;